Time;durP1;ratioP1;P1;durP2;ratioP2;P2;SDS_P1;SDS_P2;PMS_P1;PMS_P2;Temp;Humidity;BMP_temperature;BMP_pressure;BME280_temperature;BME280_humidity;BME280_pressure;Samples;Min_cycle;Max_cycle;Signal;HPM_P1;HPM_P2
2021/04/17 00:02:06;;;;;;;4.03;3.72;;;;;;;5.62;73.32;99277.91;1719925;82;21024;-60
2021/04/17 00:04:37;;;;;;;3.65;3.35;;;;;;;5.61;73.22;99281.80;1719981;83;21143;-60
2021/04/17 00:07:07;;;;;;;3.67;3.37;;;;;;;5.59;73.22;99280.58;1719944;83;21139;-60
2021/04/17 00:09:35;;;;;;;3.25;3.02;;;;;;;5.54;73.42;99278.11;1720006;83;21548;-60
2021/04/17 00:12:14;;;;;;;3.35;3.05;;;;;;;5.52;73.60;99286.33;1719872;82;21136;-60
2021/04/17 00:14:41;;;;;;;3.60;3.30;;;;;;;5.53;73.42;99291.04;1719936;83;21162;-60
2021/04/17 00:17:12;;;;;;;4.00;3.70;;;;;;;5.51;73.35;99285.06;1719826;83;21178;-60
2021/04/17 00:19:40;;;;;;;3.75;3.45;;;;;;;5.51;73.30;99282.05;1719942;83;21064;-60
2021/04/17 00:22:08;;;;;;;3.85;3.55;;;;;;;5.51;73.21;99276.04;1719928;83;21285;-60
2021/04/17 00:24:35;;;;;;;2.98;2.77;;;;;;;5.50;73.14;99287.23;1719829;83;21034;-60
2021/04/17 00:27:03;;;;;;;3.70;3.40;;;;;;;5.49;73.21;99282.96;1719880;83;21115;-60
2021/04/17 00:29:32;;;;;;;3.25;3.02;;;;;;;5.46;73.44;99281.30;1719689;83;21535;-60
2021/04/17 00:32:01;;;;;;;3.87;3.58;;;;;;;5.43;73.48;99277.94;1719915;83;21063;-60
2021/04/17 00:34:28;;;;;;;3.80;3.50;;;;;;;5.38;73.62;99278.08;1719895;83;21313;-60
2021/04/17 00:36:55;;;;;;;3.95;3.65;;;;;;;5.35;73.58;99273.42;1719811;82;21088;-60
2021/04/17 00:39:23;;;;;;;3.55;3.25;;;;;;;5.30;73.70;99269.66;1719881;82;21136;-60
2021/04/17 00:41:50;;;;;;;3.50;3.20;;;;;;;5.27;73.92;99265.00;1719849;83;21509;-61
2021/04/17 00:44:18;;;;;;;3.20;2.90;;;;;;;5.24;74.03;99267.21;1719892;83;21131;-60
2021/04/17 00:46:45;;;;;;;3.50;3.20;;;;;;;5.20;74.25;99266.42;1719878;83;21199;-60
2021/04/17 00:49:13;;;;;;;3.62;3.42;;;;;;;5.17;74.46;99269.10;1719766;83;22002;-60
2021/04/17 00:51:41;;;;;;;3.92;3.62;;;;;;;5.15;74.46;99262.28;1719877;83;21194;-60
2021/04/17 00:54:09;;;;;;;4.20;3.85;;;;;;;5.14;74.46;99270.45;1719953;83;21072;-60
2021/04/17 00:56:37;;;;;;;3.77;3.47;;;;;;;5.13;74.37;99266.63;1693704;83;21481;-60
2021/04/17 00:59:04;;;;;;;4.00;3.70;;;;;;;5.10;74.23;99273.12;1719993;83;21403;-61
2021/04/17 01:01:32;;;;;;;3.95;3.65;;;;;;;5.05;74.27;99272.38;1719898;83;21127;-60
2021/04/17 01:04:14;;;;;;;4.30;4.00;;;;;;;4.98;74.35;99271.69;1719856;83;21491;-61
2021/04/17 01:06:52;;;;;;;4.17;3.87;;;;;;;4.96;74.66;99273.89;1720162;83;21151;-61
2021/04/17 01:09:54;;;;;;;5.03;4.00;;;;;;;4.95;74.83;99273.04;1719887;83;21179;-63
2021/04/17 01:12:24;;;;;;;4.17;3.35;;;;;;;4.96;74.74;99273.89;1719911;83;21410;-60
2021/04/17 01:14:52;;;;;;;3.95;3.65;;;;;;;4.94;74.85;99269.20;1719829;83;21190;-61
2021/04/17 01:17:20;;;;;;;4.17;3.77;;;;;;;4.95;74.86;99268.33;1719836;83;21044;-61
2021/04/17 01:20:12;;;;;;;4.42;4.10;;;;;;;4.94;74.77;99276.50;1719861;83;21088;-61
2021/04/17 01:22:39;;;;;;;4.72;4.40;;;;;;;4.96;74.85;99276.46;1719919;83;21052;-61
2021/04/17 01:25:11;;;;;;;4.80;4.47;;;;;;;5.00;74.82;99276.34;1670477;83;22321;-61
2021/04/17 01:27:39;;;;;;;4.33;4.03;;;;;;;5.01;74.60;99278.03;1719791;83;21083;-61
2021/04/17 01:30:17;;;;;;;3.80;3.50;;;;;;;5.01;74.53;99281.91;1719747;83;21243;-61
2021/04/17 01:32:52;;;;;;;4.20;3.90;;;;;;;5.06;74.67;99280.08;1873663;75;22717;-61
2021/04/17 01:35:20;;;;;;;4.28;3.98;;;;;;;5.03;74.55;99282.72;1789197;78;21451;-61
2021/04/17 01:38:15;;;;;;;4.50;4.20;;;;;;;5.02;74.45;99287.47;1829651;78;21114;-61
2021/04/17 01:40:47;;;;;;;4.92;4.53;;;;;;;5.01;74.53;99285.77;1808519;79;20935;-60
2021/04/17 01:43:15;;;;;;;5.20;4.80;;;;;;;4.99;74.67;99288.00;1808650;79;21593;-61
2021/04/17 01:45:43;;;;;;;4.42;4.12;;;;;;;4.98;74.73;99285.86;1808542;79;21045;-61
2021/04/17 01:48:10;;;;;;;4.00;3.70;;;;;;;4.98;74.82;99292.75;1808615;79;21646;-61
2021/04/17 01:50:40;;;;;;;4.35;4.05;;;;;;;4.97;74.74;99286.74;1808435;79;20954;-61
2021/04/17 01:53:10;;;;;;;4.62;4.30;;;;;;;4.96;74.85;99280.33;1808548;79;21026;-60
2021/04/17 01:55:38;;;;;;;4.37;4.08;;;;;;;4.97;74.94;99278.16;1808556;79;21061;-60
2021/04/17 01:58:06;;;;;;;4.37;4.05;;;;;;;4.98;75.12;99277.28;1808489;78;21117;-60
2021/04/17 02:00:34;;;;;;;5.12;4.72;;;;;;;4.98;75.20;99282.00;1808532;79;21172;-60
2021/04/17 02:03:02;;;;;;;3.85;3.55;;;;;;;4.96;75.20;99277.31;1808519;79;21339;-60
2021/04/17 02:05:30;;;;;;;4.45;4.12;;;;;;;4.96;75.07;99276.46;1808451;79;21589;-60
2021/04/17 02:07:58;;;;;;;4.00;3.70;;;;;;;4.94;75.14;99274.36;1808502;79;21069;-60
2021/04/17 02:10:26;;;;;;;4.00;3.70;;;;;;;4.95;75.23;99276.91;1808475;78;21545;-60
2021/04/17 02:12:55;;;;;;;3.98;3.67;;;;;;;4.96;75.12;99277.75;1808501;78;21117;-60
2021/04/17 02:15:23;;;;;;;3.80;3.52;;;;;;;4.93;74.92;99279.10;1808505;79;21203;-61
2021/04/17 02:18:09;;;;;;;3.95;3.65;;;;;;;4.90;74.93;99276.15;1808502;78;21077;-60
2021/04/17 02:20:41;;;;;;;3.75;3.45;;;;;;;4.88;75.02;99283.50;1801437;79;21144;-61
2021/04/17 02:23:10;;;;;;;6.17;3.52;;;;;;;4.88;75.18;99282.21;1807740;79;21068;-60
2021/04/17 02:25:38;;;;;;;3.87;3.58;;;;;;;4.89;75.27;99285.20;1808512;78;21104;-61
2021/04/17 02:28:06;;;;;;;4.33;4.03;;;;;;;4.90;75.18;99293.34;1808452;78;22143;-61
2021/04/17 02:30:36;;;;;;;4.30;4.00;;;;;;;4.87;75.10;99283.94;1808388;79;21164;-61
2021/04/17 02:33:04;;;;;;;4.03;3.72;;;;;;;4.87;75.09;99293.40;1814001;79;21572;-61
2021/04/17 02:35:33;;;;;;;6.72;3.87;;;;;;;4.84;75.18;99300.31;1814201;78;21057;-61
2021/04/17 02:38:00;;;;;;;3.75;3.45;;;;;;;4.81;75.22;99295.66;1814259;77;21038;-61
2021/04/17 02:40:28;;;;;;;3.95;3.58;;;;;;;4.81;75.21;99304.23;1814211;78;22215;-61
2021/04/17 02:42:55;;;;;;;4.17;3.87;;;;;;;4.81;75.01;99311.11;1813828;79;21136;-61
2021/04/17 02:45:23;;;;;;;4.20;3.90;;;;;;;4.80;74.91;99310.70;1813602;79;21485;-61
2021/04/17 02:47:50;;;;;;;4.55;3.98;;;;;;;4.80;74.97;99311.99;1813586;79;21061;-61
2021/04/17 02:50:19;;;;;;;4.10;3.80;;;;;;;4.81;74.93;99311.97;1813705;79;21513;-60
2021/04/17 02:52:48;;;;;;;3.83;3.52;;;;;;;4.82;74.90;99308.51;1813558;79;21271;-60
2021/04/17 02:55:17;;;;;;;3.10;2.87;;;;;;;4.83;74.62;99317.94;1813520;78;21108;-60
2021/04/17 02:57:46;;;;;;;3.75;3.45;;;;;;;4.83;74.60;99318.38;1813589;79;21128;-60
2021/04/17 03:00:17;;;;;;;3.70;3.40;;;;;;;4.82;74.60;99323.13;1813608;79;21061;-60
2021/04/17 03:02:44;;;;;;;3.77;3.47;;;;;;;4.83;74.76;99326.11;1813662;79;21140;-60
2021/04/17 03:05:13;;;;;;;4.00;3.72;;;;;;;4.85;74.58;99329.06;1813582;78;21288;-60
2021/04/17 03:07:41;;;;;;;4.33;4.03;;;;;;;4.84;74.52;99330.37;1813511;78;20973;-60
2021/04/17 03:10:10;;;;;;;4.53;4.12;;;;;;;4.83;74.51;99333.39;1813630;79;21164;-60
2021/04/17 03:12:37;;;;;;;4.25;3.90;;;;;;;4.81;74.49;99330.00;1813532;78;21116;-60
2021/04/17 03:15:07;;;;;;;6.33;3.90;;;;;;;4.79;74.57;99335.66;1813624;78;21144;-60
2021/04/17 03:17:34;;;;;;;4.62;4.22;;;;;;;4.76;74.72;99332.28;1813586;79;21464;-60
2021/04/17 03:20:06;;;;;;;4.22;3.70;;;;;;;4.73;74.88;99337.50;1813515;79;21535;-60
2021/04/17 03:22:34;;;;;;;4.65;4.25;;;;;;;4.71;74.96;99341.83;1813586;79;21121;-60
2021/04/17 03:25:07;;;;;;;4.53;4.12;;;;;;;4.72;74.98;99345.66;1813573;79;21045;-60
2021/04/17 03:27:35;;;;;;;4.05;3.65;;;;;;;4.71;74.94;99345.25;1813720;78;21542;-60
2021/04/17 03:30:07;;;;;;;3.87;3.47;;;;;;;4.71;75.03;99344.41;1813584;79;22541;-60
2021/04/17 03:32:36;;;;;;;3.95;3.65;;;;;;;4.74;75.04;99352.08;1809850;79;21175;-60
2021/04/17 03:35:07;;;;;;;4.33;3.92;;;;;;;4.74;75.14;99342.62;1807868;78;21542;-61
2021/04/17 03:37:35;;;;;;;4.22;3.92;;;;;;;4.76;75.14;99351.17;1807842;78;21161;-60
2021/04/17 03:40:05;;;;;;;4.10;3.80;;;;;;;4.78;75.06;99351.14;1807871;78;21049;-60
2021/04/17 03:42:32;;;;;;;4.70;4.30;;;;;;;4.80;75.05;99350.20;1807894;79;21234;-60
2021/04/17 03:45:00;;;;;;;4.75;3.77;;;;;;;4.84;75.06;99354.86;1807813;79;21078;-62
2021/04/17 03:47:28;;;;;;;4.30;3.90;;;;;;;4.87;74.99;99350.94;1807787;78;21533;-59
2021/04/17 03:49:55;;;;;;;4.35;3.58;;;;;;;4.89;75.05;99353.05;1807829;79;21056;-61
2021/04/17 03:52:22;;;;;;;4.15;3.85;;;;;;;4.92;75.10;99356.01;1807846;79;21474;-60
2021/04/17 03:54:50;;;;;;;4.65;4.25;;;;;;;4.94;75.16;99361.98;1807811;79;21188;-60
2021/04/17 03:57:18;;;;;;;4.37;4.00;;;;;;;4.94;75.22;99355.10;1807855;79;21564;-60
2021/04/17 03:59:47;;;;;;;4.62;4.22;;;;;;;4.99;75.13;99366.61;1807835;79;21128;-60
2021/04/17 04:02:14;;;;;;;6.58;4.28;;;;;;;5.03;75.03;99361.77;1807879;78;21589;-60
2021/04/17 04:04:42;;;;;;;4.00;3.70;;;;;;;5.07;74.90;99360.84;1807888;78;21054;-60
2021/04/17 04:07:10;;;;;;;4.45;4.05;;;;;;;5.10;74.79;99365.50;1807850;79;21201;-60
2021/04/17 04:09:38;;;;;;;4.33;3.92;;;;;;;5.14;74.71;99364.55;1807897;79;20998;-60
2021/04/17 04:12:07;;;;;;;7.75;4.85;;;;;;;5.20;74.68;99373.42;1807794;78;21137;-60
2021/04/17 04:14:35;;;;;;;4.60;4.22;;;;;;;5.28;74.48;99370.70;1807765;78;21168;-60
2021/04/17 04:17:03;;;;;;;6.05;4.60;;;;;;;5.36;74.14;99373.12;1807853;79;21483;-60
2021/04/17 04:19:30;;;;;;;4.42;4.03;;;;;;;5.42;73.81;99370.38;1807851;79;21181;-60
2021/04/17 04:21:58;;;;;;;6.60;4.05;;;;;;;5.47;73.56;99375.01;1807737;79;21858;-60
2021/04/17 04:24:25;;;;;;;4.97;4.50;;;;;;;5.51;73.08;99370.19;1807801;79;21109;-61
2021/04/17 04:26:53;;;;;;;7.22;4.28;;;;;;;5.53;72.64;99378.31;1807837;79;21057;-61
2021/04/17 04:29:21;;;;;;;4.92;4.53;;;;;;;5.55;72.70;99376.98;1807857;78;21054;-60
2021/04/17 04:31:49;;;;;;;4.90;4.15;;;;;;;5.61;72.53;99380.70;1808591;79;21581;-61
2021/04/17 04:34:17;;;;;;;5.28;4.78;;;;;;;5.67;72.29;99379.27;1813498;78;21124;-60
2021/04/17 04:36:46;;;;;;;6.97;4.60;;;;;;;5.71;72.33;99378.33;1813514;79;21537;-60
2021/04/17 04:39:14;;;;;;;6.85;4.60;;;;;;;5.75;72.16;99381.69;1813478;77;21160;-60
2021/04/17 04:41:43;;;;;;;5.25;4.78;;;;;;;5.78;71.83;99381.63;1813554;79;21573;-61
2021/04/17 04:44:11;;;;;;;5.37;4.33;;;;;;;5.81;71.76;99387.98;1813497;79;21188;-61
2021/04/17 04:46:39;;;;;;;4.75;4.45;;;;;;;5.82;71.43;99384.52;1813491;79;21093;-61
2021/04/17 04:49:07;;;;;;;6.55;4.12;;;;;;;5.83;71.26;99389.64;1813514;79;21088;-61
2021/04/17 04:51:35;;;;;;;5.70;3.98;;;;;;;5.85;71.42;99387.02;1813463;79;21167;-61
2021/04/17 04:54:04;;;;;;;5.35;4.87;;;;;;;5.90;71.23;99385.66;1813476;79;21085;-61
2021/04/17 04:56:31;;;;;;;5.72;4.78;;;;;;;5.93;71.22;99383.02;1813602;79;21433;-61
2021/04/17 04:58:59;;;;;;;4.90;4.50;;;;;;;6.02;70.91;99393.95;1813429;79;21053;-61
2021/04/17 05:01:26;;;;;;;5.85;5.35;;;;;;;6.06;70.56;99393.44;1813493;79;21097;-61
2021/04/17 05:03:54;;;;;;;5.37;4.87;;;;;;;6.06;70.30;99398.16;1813495;79;21169;-61
2021/04/17 05:06:22;;;;;;;6.72;4.90;;;;;;;6.05;70.25;99393.03;1813490;79;21034;-62
2021/04/17 05:08:50;;;;;;;5.08;4.67;;;;;;;6.05;70.18;99393.88;1813585;79;22244;-61
2021/04/17 05:11:18;;;;;;;5.42;4.92;;;;;;;6.06;70.16;99394.29;1813414;78;21136;-61
2021/04/17 05:13:45;;;;;;;6.58;5.97;;;;;;;6.08;69.92;99398.98;1813545;78;21132;-61
2021/04/17 05:16:13;;;;;;;10.13;6.75;;;;;;;6.07;69.96;99402.44;1813490;78;21498;-60
2021/04/17 05:18:41;;;;;;;6.62;6.03;;;;;;;6.10;70.07;99407.98;1813498;79;21033;-60
2021/04/17 05:21:09;;;;;;;5.58;5.08;;;;;;;6.15;70.00;99402.27;1813445;78;21480;-60
2021/04/17 05:23:36;;;;;;;6.87;6.20;;;;;;;6.16;69.66;99403.52;1813414;78;21089;-60
2021/04/17 05:26:04;;;;;;;5.97;5.33;;;;;;;6.17;69.63;99399.20;1813457;79;21053;-61
2021/04/17 05:28:31;;;;;;;6.20;5.60;;;;;;;6.19;69.61;99403.89;1813463;79;21061;-61
2021/04/17 05:30:59;;;;;;;6.70;5.42;;;;;;;6.25;69.54;99398.55;1813477;79;21069;-61
2021/04/17 05:33:27;;;;;;;5.70;5.12;;;;;;;6.36;69.47;99402.17;1813357;79;21194;-62
2021/04/17 05:35:55;;;;;;;5.22;4.83;;;;;;;6.44;68.61;99403.66;1813391;79;21711;-62
2021/04/17 05:38:23;;;;;;;7.25;6.00;;;;;;;6.51;68.42;99397.90;1813406;77;21049;-60
2021/04/17 05:40:50;;;;;;;5.58;5.08;;;;;;;6.62;68.21;99396.30;1813458;79;21049;-60
2021/04/17 05:43:18;;;;;;;5.78;5.28;;;;;;;6.72;68.06;99400.36;1813442;79;21635;-61
2021/04/17 05:45:45;;;;;;;6.90;6.30;;;;;;;6.77;67.84;99399.35;1813452;78;21434;-60
2021/04/17 05:48:14;;;;;;;7.62;6.87;;;;;;;6.79;67.64;99396.28;1786710;79;21101;-61
2021/04/17 05:50:42;;;;;;;7.20;5.62;;;;;;;6.82;67.58;99393.59;1813452;79;21054;-60
2021/04/17 05:53:09;;;;;;;16.52;7.00;;;;;;;6.88;67.46;99390.84;1813393;78;21044;-61
2021/04/17 05:55:39;;;;;;;5.42;4.92;;;;;;;6.95;67.45;99399.73;1813488;78;21699;-61
2021/04/17 05:58:07;;;;;;;11.88;5.28;;;;;;;7.02;67.18;99409.84;1813416;78;22800;-61
2021/04/17 06:00:34;;;;;;;8.73;6.40;;;;;;;7.05;67.13;99406.33;1813331;79;21156;-61
2021/04/17 06:03:04;;;;;;;6.15;5.55;;;;;;;7.09;67.19;99407.50;1813348;79;21148;-61
2021/04/17 06:05:31;;;;;;;12.75;6.95;;;;;;;7.13;66.57;99414.28;1813417;79;21108;-62
2021/04/17 06:08:00;;;;;;;7.72;6.10;;;;;;;7.16;66.57;99415.94;1813133;78;21101;-62
2021/04/17 06:10:28;;;;;;;11.83;6.90;;;;;;;7.20;66.41;99426.12;1813408;79;21362;-60
2021/04/17 06:12:55;;;;;;;15.13;10.75;;;;;;;7.22;66.41;99424.80;1813305;78;21141;-61
2021/04/17 06:15:24;;;;;;;9.03;6.05;;;;;;;7.24;66.40;99421.72;1813371;78;21652;-62
2021/04/17 06:17:52;;;;;;;7.47;6.60;;;;;;;7.29;66.28;99424.19;1813441;79;21053;-61
2021/04/17 06:20:20;;;;;;;14.75;8.28;;;;;;;7.32;66.08;99424.10;1813590;79;21037;-62
2021/04/17 06:22:49;;;;;;;7.65;6.40;;;;;;;7.30;66.24;99429.32;1812459;78;21194;-63
2021/04/17 06:25:17;;;;;;;5.35;4.85;;;;;;;7.31;66.13;99441.36;1813461;79;21120;-60
2021/04/17 06:27:44;;;;;;;5.83;5.33;;;;;;;7.30;65.83;99438.38;1813497;79;21569;-61
2021/04/17 06:30:17;;;;;;;11.08;6.50;;;;;;;7.23;65.96;99436.39;1813540;78;21073;-61
2021/04/17 06:32:44;;;;;;;5.87;4.92;;;;;;;7.22;66.01;99441.61;1813424;79;21069;-61
2021/04/17 06:35:13;;;;;;;14.95;7.05;;;;;;;7.20;66.08;99446.83;1813651;78;22566;-62
2021/04/17 06:37:40;;;;;;;11.08;5.97;;;;;;;7.20;66.36;99445.53;1813477;77;21107;-61
2021/04/17 08:22:57;;;;;;;11.00;7.17;;;;;;;7.86;66.13;99509.18;1835607;77;26322;-62
2021/04/17 08:25:27;;;;;;;9.35;6.40;;;;;;;7.88;65.74;99511.73;1785149;79;21219;-62
2021/04/17 08:27:55;;;;;;;9.33;6.47;;;;;;;7.91;65.46;99509.91;1788427;79;21704;-62
2021/04/17 08:30:27;;;;;;;14.50;7.80;;;;;;;7.92;65.68;99512.89;1734573;81;21174;-61
2021/04/17 08:32:57;;;;;;;9.53;7.30;;;;;;;7.97;65.59;99515.35;1766884;80;21139;-62
2021/04/17 08:35:25;;;;;;;14.95;5.85;;;;;;;8.00;65.29;99507.91;1736843;81;21552;-61
2021/04/17 08:38:00;;;;;;;22.67;8.33;;;;;;;8.03;65.28;99515.14;1703496;82;21207;-61
2021/04/17 08:40:42;;;;;;;23.12;9.55;;;;;;;8.05;65.17;99513.80;1788458;79;21196;-62
2021/04/17 08:43:19;;;;;;;10.50;7.12;;;;;;;8.08;65.17;99517.16;1736439;81;20914;-62
2021/04/17 08:46:11;;;;;;;10.05;6.80;;;;;;;8.13;65.08;99510.10;1806615;79;21599;-62
2021/04/17 08:48:58;;;;;;;9.45;7.65;;;;;;;8.19;64.87;99511.18;1793146;79;21476;-62
2021/04/17 08:51:38;;;;;;;11.73;7.15;;;;;;;8.18;64.66;99510.81;1734047;81;21116;-63
2021/04/17 08:54:11;;;;;;;10.60;6.80;;;;;;;8.18;64.82;99515.14;1811355;79;21361;-62
2021/04/17 08:56:48;;;;;;;7.87;6.10;;;;;;;8.22;64.73;99519.31;1720224;81;21116;-62
2021/04/17 08:59:35;;;;;;;11.48;6.03;;;;;;;8.25;64.56;99517.48;1790657;79;21215;-62
2021/04/17 09:02:10;;;;;;;8.25;5.50;;;;;;;8.29;64.08;99523.42;1795289;79;21191;-63
2021/04/17 09:05:01;;;;;;;10.78;5.92;;;;;;;8.25;64.26;99518.77;1721674;82;21131;-61
2021/04/17 09:07:30;;;;;;;10.78;5.10;;;;;;;8.28;64.36;99520.42;1796805;78;21254;-62
2021/04/17 09:10:24;;;;;;;6.50;5.87;;;;;;;8.34;64.18;99511.66;1743001;82;21076;-63
2021/04/17 09:16:06;;;;;;;7.92;6.03;;;;;;;8.31;64.05;99516.45;1872867;75;22743;-62
2021/04/17 09:18:38;;;;;;;6.30;5.65;;;;;;;8.27;64.26;99523.47;1841591;78;21117;-62
2021/04/17 09:21:24;;;;;;;8.33;6.05;;;;;;;8.32;64.19;99519.47;1825518;77;21077;-61
2021/04/17 09:23:53;;;;;;;15.53;5.75;;;;;;;8.42;64.04;99519.56;1808435;78;21513;-62
2021/04/17 09:26:35;;;;;;;21.50;7.03;;;;;;;8.47;63.65;99519.42;1808517;78;21183;-61
2021/04/17 09:29:08;;;;;;;8.63;6.08;;;;;;;8.43;63.71;99518.67;1808525;78;21137;-62
2021/04/17 09:31:36;;;;;;;;;;;;;;;8.40;63.61;99517.47;1808809;79;21472;-62
2021/04/17 09:34:09;;;;;;;7.08;6.35;;;;;;;8.36;63.50;99519.78;1808558;78;22305;-62
2021/04/17 09:36:37;;;;;;;8.03;6.67;;;;;;;8.34;63.91;99519.42;1808335;79;20899;-60
2021/04/17 09:39:26;;;;;;;14.63;7.62;;;;;;;8.34;64.03;99523.31;1808484;79;21133;-63
2021/04/17 09:41:57;;;;;;;6.50;5.90;;;;;;;8.41;64.23;99524.34;1808491;79;21141;-61
2021/04/17 09:44:25;;;;;;;15.30;7.20;;;;;;;8.51;63.59;99515.84;1808555;79;21089;-61
2021/04/17 09:47:09;;;;;;;18.50;6.17;;;;;;;8.57;63.60;99522.98;1808505;79;21357;-62
2021/04/17 09:49:44;;;;;;;9.48;6.15;;;;;;;8.71;63.56;99522.97;1808467;79;21065;-62
2021/04/17 09:52:20;;;;;;;10.60;6.80;;;;;;;8.90;63.11;99521.01;1808502;79;21580;-62
2021/04/17 09:54:59;;;;;;;10.23;5.40;;;;;;;9.10;62.81;99523.38;1808427;79;21034;-62
2021/04/17 09:57:28;;;;;;;10.53;5.80;;;;;;;9.32;61.87;99522.57;1808508;79;21497;-62
2021/04/17 09:59:58;;;;;;;12.23;4.97;;;;;;;9.53;61.20;99522.70;1808482;79;21359;-62
2021/04/17 10:02:43;;;;;;;11.75;5.72;;;;;;;9.65;60.15;99517.90;1808442;79;21078;-61
2021/04/17 10:05:14;;;;;;;18.92;6.80;;;;;;;9.70;59.87;99520.78;1808396;79;21132;-63
2021/04/17 10:07:50;;;;;;;16.57;6.50;;;;;;;9.67;60.13;99521.29;1808447;78;21093;-63
2021/04/17 10:10:16;;;;;;;21.57;5.30;;;;;;;9.74;60.00;99520.62;1808591;78;21041;-63
2021/04/17 10:12:54;;;;;;;20.48;8.55;;;;;;;9.79;59.67;99518.67;1808509;79;21341;-62
2021/04/17 10:15:27;;;;;;;8.78;5.55;;;;;;;9.86;59.85;99522.74;1807025;79;21556;-63
2021/04/17 10:17:57;;;;;;;9.43;6.03;;;;;;;9.99;59.42;99533.05;1808546;78;21205;-63
2021/04/17 10:20:26;;;;;;;9.38;6.37;;;;;;;10.05;59.04;99526.78;1808493;78;21144;-62
2021/04/17 10:22:56;;;;;;;7.42;6.08;;;;;;;10.01;59.09;99529.95;1808478;78;21133;-62
2021/04/17 10:25:39;;;;;;;7.97;5.12;;;;;;;10.00;59.08;99525.66;1808404;79;22236;-63
2021/04/17 10:28:12;;;;;;;11.50;5.80;;;;;;;9.96;58.58;99528.00;1808066;79;21485;-62
2021/04/17 10:30:40;;;;;;;7.67;5.40;;;;;;;9.88;59.17;99534.38;1807737;79;21078;-62
2021/04/17 10:33:22;;;;;;;8.05;5.80;;;;;;;9.90;59.15;99529.98;1807205;79;21156;-64
2021/04/17 10:35:52;;;;;;;5.75;5.25;;;;;;;9.87;59.13;99533.98;1759709;79;21065;-62
2021/04/17 10:38:33;;;;;;;15.65;6.97;;;;;;;9.83;59.30;99528.05;1807862;78;21423;-62
2021/04/17 10:41:02;;;;;;;8.18;6.70;;;;;;;9.79;59.48;99536.04;1807908;79;21528;-62
2021/04/17 10:43:31;;;;;;;10.08;6.35;;;;;;;9.72;59.82;99531.52;1807930;78;21172;-62
2021/04/17 10:46:03;;;;;;;6.42;5.50;;;;;;;9.69;60.30;99538.12;1807869;79;21081;-64
2021/04/17 10:48:43;;;;;;;7.05;5.97;;;;;;;9.74;60.28;99532.76;1807882;79;21054;-62
2021/04/17 10:51:16;;;;;;;11.15;6.65;;;;;;;9.76;60.19;99536.15;1807851;78;21334;-62
2021/04/17 10:53:47;;;;;;;18.45;6.25;;;;;;;9.79;60.29;99533.44;1807443;79;21181;-63
2021/04/17 10:56:21;;;;;;;6.78;5.97;;;;;;;9.88;60.02;99539.58;1807110;79;21113;-62
2021/04/17 10:59:03;;;;;;;17.32;6.35;;;;;;;10.02;60.12;99534.25;1807227;78;21639;-63
2021/04/17 11:01:37;;;;;;;5.83;5.33;;;;;;;10.26;59.86;99532.48;1807718;78;21164;-63
2021/04/17 11:04:04;;;;;;;13.45;5.40;;;;;;;10.43;58.97;99532.27;1807448;79;22187;-63
2021/04/17 11:06:36;;;;;;;6.30;5.58;;;;;;;10.46;58.44;99540.80;1807828;79;21121;-62
2021/04/17 11:09:16;;;;;;;8.08;6.70;;;;;;;10.36;58.18;99542.09;1807953;78;21544;-62
2021/04/17 11:12:00;;;;;;;10.85;6.22;;;;;;;10.24;58.71;99543.40;1807854;79;21137;-61
2021/04/17 11:14:29;;;;;;;6.72;5.58;;;;;;;10.27;58.79;99550.23;1807798;78;21181;-62
2021/04/17 11:17:05;;;;;;;6.15;5.55;;;;;;;10.35;58.70;99541.70;1807829;79;21074;-62
2021/04/17 11:19:34;;;;;;;12.25;7.10;;;;;;;10.42;58.19;99540.52;1805993;78;21572;-62
2021/04/17 11:22:10;;;;;;;6.35;5.35;;;;;;;10.45;58.61;99541.70;1807796;78;21153;-63
2021/04/17 11:24:43;;;;;;;8.40;5.45;;;;;;;10.59;58.05;99543.78;1807892;79;21144;-62
2021/04/17 11:27:11;;;;;;;6.60;5.92;;;;;;;10.66;57.92;99540.00;1789680;79;21187;-62
2021/04/17 11:29:38;;;;;;;13.05;5.90;;;;;;;10.78;57.57;99539.97;1807927;79;22006;-62
2021/04/17 11:32:06;;;;;;;5.67;5.17;;;;;;;10.92;57.53;99542.84;1807750;79;21080;-62
2021/04/17 11:34:34;;;;;;;11.95;6.47;;;;;;;11.07;57.09;99544.80;1807875;78;21549;-62
2021/04/17 11:37:02;;;;;;;10.63;6.95;;;;;;;11.18;56.15;99545.20;1732341;78;21835;-62
2021/04/17 11:39:31;;;;;;;8.08;6.10;;;;;;;11.21;56.37;99545.05;1807804;79;21148;-63
2021/04/17 11:41:59;;;;;;;10.08;5.70;;;;;;;11.31;56.28;99551.56;1807812;79;21157;-62
2021/04/17 11:44:28;;;;;;;11.60;6.70;;;;;;;11.43;55.67;99546.27;1807756;79;21086;-63
2021/04/17 11:46:59;;;;;;;12.33;6.72;;;;;;;11.43;55.45;99546.27;1807800;79;21050;-63
2021/04/17 11:49:27;;;;;;;6.80;5.70;;;;;;;11.43;55.52;99549.33;1807792;79;21061;-62
2021/04/17 11:51:54;;;;;;;7.45;6.10;;;;;;;11.34;54.97;99550.13;1807856;79;21513;-62
2021/04/17 11:54:22;;;;;;;11.35;7.65;;;;;;;11.18;55.60;99547.80;1807756;79;21223;-62
2021/04/17 11:56:49;;;;;;;9.95;5.53;;;;;;;11.23;56.14;99543.68;1807778;78;21930;-63
2021/04/17 11:59:16;;;;;;;9.13;5.67;;;;;;;11.38;55.41;99550.86;1807873;79;21057;-62
2021/04/17 12:01:44;;;;;;;8.10;6.33;;;;;;;11.38;55.04;99548.25;1807840;79;21832;-62
2021/04/17 12:04:12;;;;;;;8.73;5.87;;;;;;;11.37;55.43;99552.61;1807781;78;21651;-62
2021/04/17 12:06:41;;;;;;;6.55;5.40;;;;;;;11.37;55.37;99548.70;1807822;79;21354;-63
2021/04/17 12:09:08;;;;;;;7.03;5.10;;;;;;;11.38;55.25;99554.77;1807727;79;21075;-63
2021/04/17 12:11:36;;;;;;;10.68;6.53;;;;;;;11.30;55.20;99552.93;1807777;79;21069;-62
2021/04/17 12:14:04;;;;;;;15.90;6.75;;;;;;;11.18;55.40;99558.22;1807818;79;21568;-62
2021/04/17 12:16:31;;;;;;;8.85;5.50;;;;;;;11.18;55.99;99561.28;1807610;79;21165;-62
2021/04/17 12:19:01;;;;;;;13.72;5.75;;;;;;;11.21;55.96;99560.66;1807779;78;21355;-61
2021/04/17 12:21:28;;;;;;;12.28;7.00;;;;;;;11.22;55.29;99558.45;1807772;78;21488;-61
2021/04/17 12:23:56;;;;;;;11.35;6.65;;;;;;;11.09;55.45;99556.44;1807773;79;21077;-63
2021/04/17 12:26:23;;;;;;;9.63;5.95;;;;;;;11.02;55.62;99554.55;1807765;79;21121;-62
2021/04/17 12:28:51;;;;;;;12.40;10.45;;;;;;;11.01;55.80;99554.15;1807784;78;21180;-63
2021/04/17 12:31:20;;;;;;;9.78;6.80;;;;;;;11.04;55.86;99558.78;1807865;78;21160;-62
2021/04/17 12:33:49;;;;;;;8.40;5.85;;;;;;;11.08;55.85;99560.80;1807808;79;21090;-62
2021/04/17 12:36:18;;;;;;;6.55;5.87;;;;;;;11.11;55.56;99556.77;1807733;79;21049;-62
2021/04/17 12:38:45;;;;;;;6.95;5.72;;;;;;;11.13;55.35;99554.11;1807770;78;21145;-62
2021/04/17 12:41:12;;;;;;;6.22;5.70;;;;;;;11.13;55.24;99548.91;1807792;79;21132;-61
2021/04/17 12:43:42;;;;;;;11.35;6.25;;;;;;;11.09;55.03;99552.54;1807779;78;21171;-62
2021/04/17 12:46:10;;;;;;;11.75;6.10;;;;;;;11.03;55.55;99552.33;1807704;79;20970;-63
2021/04/17 12:48:37;;;;;;;10.38;7.70;;;;;;;11.03;55.72;99553.63;1807738;79;21062;-63
2021/04/17 12:51:06;;;;;;;7.65;6.95;;;;;;;11.05;55.54;99549.22;1807757;79;21045;-62
2021/04/17 12:53:35;;;;;;;8.85;6.37;;;;;;;11.18;55.07;99553.47;1807791;79;21129;-62
2021/04/17 12:56:03;;;;;;;7.95;5.65;;;;;;;11.23;54.96;99547.59;1807748;79;21216;-64
2021/04/17 12:58:31;;;;;;;6.58;5.90;;;;;;;11.27;55.07;99551.30;1807754;79;21151;-62
2021/04/17 13:00:59;;;;;;;6.45;5.85;;;;;;;11.32;54.86;99548.05;1807917;79;21479;-62
2021/04/17 13:03:26;;;;;;;4.92;4.53;;;;;;;11.35;54.98;99545.77;1807796;79;21093;-63
2021/04/17 13:05:54;;;;;;;5.33;4.75;;;;;;;11.40;54.42;99546.39;1807765;79;21145;-62
2021/04/17 13:08:24;;;;;;;9.60;5.10;;;;;;;11.49;54.33;99546.47;1807722;79;21359;-63
2021/04/17 13:10:51;;;;;;;6.92;4.37;;;;;;;11.62;54.06;99547.60;1807679;78;21212;-63
2021/04/17 13:13:19;;;;;;;14.63;5.97;;;;;;;11.64;53.86;99546.63;1807730;79;21085;-62
2021/04/17 13:15:48;;;;;;;5.70;5.15;;;;;;;11.60;53.96;99544.22;1810199;78;21492;-64
2021/04/17 13:18:15;;;;;;;5.45;4.87;;;;;;;11.56;54.11;99555.26;1813494;79;21528;-62
2021/04/17 13:20:43;;;;;;;10.25;5.28;;;;;;;11.55;54.00;99557.47;1813507;77;22257;-62
2021/04/17 13:23:10;;;;;;;8.03;6.72;;;;;;;11.50;54.27;99554.22;1813332;78;21980;-62
2021/04/17 13:25:37;;;;;;;6.80;5.42;;;;;;;11.54;54.64;99551.87;1813486;78;21481;-62
2021/04/17 13:28:06;;;;;;;9.08;4.95;;;;;;;11.60;54.42;99546.83;1813546;79;21121;-62
2021/04/17 13:30:35;;;;;;;6.62;5.00;;;;;;;11.66;54.02;99542.66;1813567;78;21545;-62
2021/04/17 13:33:02;;;;;;;6.87;5.20;;;;;;;11.62;53.92;99549.75;1813472;79;21350;-61
2021/04/17 13:35:32;;;;;;;5.83;4.42;;;;;;;11.63;54.12;99547.99;1812733;79;21207;-63
2021/04/17 13:38:01;;;;;;;6.22;5.35;;;;;;;11.62;53.86;99549.75;1813437;79;21141;-61
2021/04/17 13:40:29;;;;;;;7.35;4.85;;;;;;;11.54;53.89;99548.42;1813434;78;21053;-62